sensor_id;sensor_type;location;lat;lon;timestamp;P1;durP1;ratioP1;P2;durP2;ratioP2
65706;SDS011;52423;43.512;5.220;2023-07-09T00:01:48;8.50;;;4.80;;
65706;SDS011;52423;43.512;5.220;2023-07-09T00:04:13;12.52;;;4.97;;
65706;SDS011;52423;43.512;5.220;2023-07-09T00:06:39;13.52;;;5.07;;
65706;SDS011;52423;43.512;5.220;2023-07-09T00:09:06;11.60;;;5.13;;
65706;SDS011;52423;43.512;5.220;2023-07-09T00:11:38;9.15;;;4.85;;
65706;SDS011;52423;43.512;5.220;2023-07-09T00:14:04;10.77;;;4.88;;
65706;SDS011;52423;43.512;5.220;2023-07-09T00:16:31;7.32;;;4.95;;
65706;SDS011;52423;43.512;5.220;2023-07-09T00:18:56;11.10;;;5.50;;
65706;SDS011;52423;43.512;5.220;2023-07-09T00:21:22;11.63;;;6.40;;
65706;SDS011;52423;43.512;5.220;2023-07-09T00:23:48;11.63;;;5.95;;
65706;SDS011;52423;43.512;5.220;2023-07-09T00:26:14;11.68;;;5.68;;
65706;SDS011;52423;43.512;5.220;2023-07-09T00:28:41;12.55;;;5.55;;
65706;SDS011;52423;43.512;5.220;2023-07-09T00:31:11;12.15;;;6.35;;
65706;SDS011;52423;43.512;5.220;2023-07-09T00:33:41;12.55;;;5.70;;
65706;SDS011;52423;43.512;5.220;2023-07-09T00:36:11;14.48;;;6.43;;
65706;SDS011;52423;43.512;5.220;2023-07-09T00:38:40;17.33;;;5.55;;
65706;SDS011;52423;43.512;5.220;2023-07-09T00:41:08;12.40;;;6.15;;
65706;SDS011;52423;43.512;5.220;2023-07-09T00:43:42;10.30;;;5.70;;
65706;SDS011;52423;43.512;5.220;2023-07-09T00:49:01;13.25;;;5.55;;
65706;SDS011;52423;43.512;5.220;2023-07-09T00:51:33;15.40;;;6.23;;
65706;SDS011;52423;43.512;5.220;2023-07-09T00:54:10;8.45;;;5.28;;
65706;SDS011;52423;43.512;5.220;2023-07-09T00:56:40;10.73;;;5.40;;
65706;SDS011;52423;43.512;5.220;2023-07-09T00:59:12;10.15;;;5.13;;
65706;SDS011;52423;43.512;5.220;2023-07-09T01:01:43;12.27;;;5.80;;
65706;SDS011;52423;43.512;5.220;2023-07-09T01:04:12;8.93;;;5.05;;
65706;SDS011;52423;43.512;5.220;2023-07-09T01:06:50;15.23;;;5.95;;
65706;SDS011;52423;43.512;5.220;2023-07-09T01:09:17;14.55;;;5.35;;
65706;SDS011;52423;43.512;5.220;2023-07-09T01:11:43;9.73;;;5.20;;
65706;SDS011;52423;43.512;5.220;2023-07-09T01:14:10;17.60;;;5.20;;
65706;SDS011;52423;43.512;5.220;2023-07-09T01:16:38;6.45;;;4.70;;
65706;SDS011;52423;43.512;5.220;2023-07-09T01:19:08;10.20;;;4.90;;
65706;SDS011;52423;43.512;5.220;2023-07-09T01:21:34;9.50;;;4.97;;
65706;SDS011;52423;43.512;5.220;2023-07-09T01:24:11;9.75;;;4.90;;
65706;SDS011;52423;43.512;5.220;2023-07-09T01:26:51;8.10;;;5.10;;
65706;SDS011;52423;43.512;5.220;2023-07-09T01:29:17;7.90;;;4.97;;
65706;SDS011;52423;43.512;5.220;2023-07-09T01:31:42;8.60;;;4.63;;
65706;SDS011;52423;43.512;5.220;2023-07-09T01:34:08;7.20;;;5.03;;
65706;SDS011;52423;43.512;5.220;2023-07-09T01:36:33;11.35;;;5.45;;
65706;SDS011;52423;43.512;5.220;2023-07-09T01:39:00;6.65;;;4.55;;
65706;SDS011;52423;43.512;5.220;2023-07-09T01:41:25;6.22;;;4.22;;
65706;SDS011;52423;43.512;5.220;2023-07-09T01:43:51;6.75;;;4.55;;
65706;SDS011;52423;43.512;5.220;2023-07-09T01:46:18;6.43;;;4.18;;
65706;SDS011;52423;43.512;5.220;2023-07-09T01:48:43;9.38;;;4.55;;
65706;SDS011;52423;43.512;5.220;2023-07-09T01:51:10;4.88;;;4.10;;
65706;SDS011;52423;43.512;5.220;2023-07-09T01:53:37;7.63;;;4.82;;
65706;SDS011;52423;43.512;5.220;2023-07-09T01:56:04;9.75;;;4.47;;
65706;SDS011;52423;43.512;5.220;2023-07-09T01:58:32;5.45;;;4.90;;
65706;SDS011;52423;43.512;5.220;2023-07-09T02:00:58;11.43;;;4.63;;
65706;SDS011;52423;43.512;5.220;2023-07-09T02:03:24;5.43;;;3.80;;
65706;SDS011;52423;43.512;5.220;2023-07-09T02:05:52;5.82;;;4.35;;
65706;SDS011;52423;43.512;5.220;2023-07-09T02:08:18;9.50;;;4.38;;
65706;SDS011;52423;43.512;5.220;2023-07-09T02:10:44;9.38;;;4.75;;
65706;SDS011;52423;43.512;5.220;2023-07-09T02:13:10;7.35;;;4.47;;
65706;SDS011;52423;43.512;5.220;2023-07-09T02:15:36;6.30;;;4.20;;
65706;SDS011;52423;43.512;5.220;2023-07-09T02:18:01;8.57;;;4.30;;
65706;SDS011;52423;43.512;5.220;2023-07-09T02:20:27;8.98;;;4.78;;
65706;SDS011;52423;43.512;5.220;2023-07-09T02:22:53;7.28;;;4.45;;
65706;SDS011;52423;43.512;5.220;2023-07-09T02:25:18;7.28;;;5.10;;
65706;SDS011;52423;43.512;5.220;2023-07-09T02:27:44;15.10;;;4.53;;
65706;SDS011;52423;43.512;5.220;2023-07-09T02:30:09;5.38;;;4.28;;
65706;SDS011;52423;43.512;5.220;2023-07-09T02:32:36;7.90;;;4.90;;
65706;SDS011;52423;43.512;5.220;2023-07-09T02:35:02;11.25;;;4.40;;
65706;SDS011;52423;43.512;5.220;2023-07-09T02:37:27;6.35;;;4.57;;
65706;SDS011;52423;43.512;5.220;2023-07-09T02:39:53;17.30;;;4.80;;
65706;SDS011;52423;43.512;5.220;2023-07-09T02:42:20;8.55;;;4.45;;
65706;SDS011;52423;43.512;5.220;2023-07-09T02:44:46;13.23;;;5.10;;
65706;SDS011;52423;43.512;5.220;2023-07-09T02:47:12;6.57;;;4.70;;
65706;SDS011;52423;43.512;5.220;2023-07-09T02:49:38;7.05;;;4.18;;
65706;SDS011;52423;43.512;5.220;2023-07-09T02:52:04;6.20;;;4.28;;
65706;SDS011;52423;43.512;5.220;2023-07-09T02:54:31;5.28;;;4.45;;
65706;SDS011;52423;43.512;5.220;2023-07-09T02:56:56;9.20;;;4.38;;
65706;SDS011;52423;43.512;5.220;2023-07-09T02:59:22;6.65;;;4.82;;
65706;SDS011;52423;43.512;5.220;2023-07-09T03:01:49;6.80;;;4.47;;
65706;SDS011;52423;43.512;5.220;2023-07-09T03:04:15;8.00;;;4.47;;
65706;SDS011;52423;43.512;5.220;2023-07-09T03:06:40;11.30;;;4.43;;
65706;SDS011;52423;43.512;5.220;2023-07-09T03:09:06;8.35;;;4.50;;
65706;SDS011;52423;43.512;5.220;2023-07-09T03:11:33;7.60;;;4.57;;
65706;SDS011;52423;43.512;5.220;2023-07-09T03:13:59;11.07;;;4.07;;
65706;SDS011;52423;43.512;5.220;2023-07-09T03:16:26;6.68;;;4.70;;
65706;SDS011;52423;43.512;5.220;2023-07-09T03:18:52;6.13;;;4.03;;
65706;SDS011;52423;43.512;5.220;2023-07-09T03:21:19;8.10;;;4.32;;
65706;SDS011;52423;43.512;5.220;2023-07-09T03:23:45;5.70;;;4.63;;
65706;SDS011;52423;43.512;5.220;2023-07-09T03:26:10;10.48;;;4.68;;
65706;SDS011;52423;43.512;5.220;2023-07-09T03:28:36;8.50;;;4.32;;
65706;SDS011;52423;43.512;5.220;2023-07-09T03:31:01;9.60;;;4.45;;
65706;SDS011;52423;43.512;5.220;2023-07-09T03:33:27;6.00;;;3.95;;
65706;SDS011;52423;43.512;5.220;2023-07-09T03:35:52;7.20;;;4.13;;
65706;SDS011;52423;43.512;5.220;2023-07-09T03:38:18;7.78;;;4.60;;
65706;SDS011;52423;43.512;5.220;2023-07-09T03:40:44;7.57;;;4.47;;
65706;SDS011;52423;43.512;5.220;2023-07-09T03:43:10;4.88;;;3.80;;
65706;SDS011;52423;43.512;5.220;2023-07-09T03:45:36;7.00;;;4.32;;
65706;SDS011;52423;43.512;5.220;2023-07-09T03:48:03;9.05;;;4.40;;
65706;SDS011;52423;43.512;5.220;2023-07-09T03:50:30;6.25;;;4.70;;
65706;SDS011;52423;43.512;5.220;2023-07-09T03:52:55;6.75;;;4.18;;
65706;SDS011;52423;43.512;5.220;2023-07-09T03:55:21;9.75;;;4.72;;
65706;SDS011;52423;43.512;5.220;2023-07-09T03:57:46;5.15;;;4.47;;
65706;SDS011;52423;43.512;5.220;2023-07-09T04:00:12;8.02;;;4.18;;
65706;SDS011;52423;43.512;5.220;2023-07-09T04:02:39;6.18;;;3.58;;
65706;SDS011;52423;43.512;5.220;2023-07-09T04:05:05;12.98;;;4.88;;
65706;SDS011;52423;43.512;5.220;2023-07-09T04:07:33;9.63;;;4.68;;
65706;SDS011;52423;43.512;5.220;2023-07-09T04:09:59;10.57;;;4.60;;
65706;SDS011;52423;43.512;5.220;2023-07-09T04:12:25;4.43;;;4.03;;
65706;SDS011;52423;43.512;5.220;2023-07-09T04:14:51;6.40;;;4.25;;
65706;SDS011;52423;43.512;5.220;2023-07-09T04:17:16;8.07;;;4.40;;
65706;SDS011;52423;43.512;5.220;2023-07-09T04:19:42;13.32;;;5.07;;
65706;SDS011;52423;43.512;5.220;2023-07-09T04:22:08;8.55;;;4.53;;
65706;SDS011;52423;43.512;5.220;2023-07-09T04:24:35;6.85;;;4.65;;
65706;SDS011;52423;43.512;5.220;2023-07-09T04:27:01;8.95;;;4.47;;
65706;SDS011;52423;43.512;5.220;2023-07-09T04:29:31;8.73;;;4.30;;
65706;SDS011;52423;43.512;5.220;2023-07-09T04:32:04;5.97;;;4.30;;
65706;SDS011;52423;43.512;5.220;2023-07-09T04:34:30;10.75;;;4.93;;
65706;SDS011;52423;43.512;5.220;2023-07-09T04:36:55;8.90;;;4.35;;
65706;SDS011;52423;43.512;5.220;2023-07-09T04:39:21;9.02;;;4.38;;
65706;SDS011;52423;43.512;5.220;2023-07-09T04:41:47;7.82;;;4.35;;
65706;SDS011;52423;43.512;5.220;2023-07-09T04:44:12;6.20;;;4.15;;
65706;SDS011;52423;43.512;5.220;2023-07-09T04:46:38;6.43;;;4.22;;
65706;SDS011;52423;43.512;5.220;2023-07-09T04:49:04;5.85;;;4.35;;
65706;SDS011;52423;43.512;5.220;2023-07-09T04:51:29;9.95;;;4.55;;
65706;SDS011;52423;43.512;5.220;2023-07-09T04:53:55;6.68;;;4.60;;
65706;SDS011;52423;43.512;5.220;2023-07-09T04:56:20;11.63;;;4.82;;
65706;SDS011;52423;43.512;5.220;2023-07-09T04:58:46;12.07;;;5.45;;
65706;SDS011;52423;43.512;5.220;2023-07-09T05:01:11;32.30;;;8.40;;
65706;SDS011;52423;43.512;5.220;2023-07-09T05:03:37;24.60;;;6.88;;
65706;SDS011;52423;43.512;5.220;2023-07-09T05:06:03;48.35;;;9.82;;
65706;SDS011;52423;43.512;5.220;2023-07-09T05:08:29;52.15;;;8.63;;
65706;SDS011;52423;43.512;5.220;2023-07-09T05:10:56;17.20;;;5.18;;
65706;SDS011;52423;43.512;5.220;2023-07-09T05:13:22;11.90;;;4.97;;
65706;SDS011;52423;43.512;5.220;2023-07-09T05:15:48;6.45;;;5.05;;
65706;SDS011;52423;43.512;5.220;2023-07-09T05:18:14;6.90;;;4.25;;
65706;SDS011;52423;43.512;5.220;2023-07-09T05:20:41;6.68;;;4.40;;
65706;SDS011;52423;43.512;5.220;2023-07-09T05:23:10;7.80;;;4.20;;
65706;SDS011;52423;43.512;5.220;2023-07-09T05:25:36;7.57;;;4.00;;
65706;SDS011;52423;43.512;5.220;2023-07-09T05:28:02;6.93;;;4.70;;
65706;SDS011;52423;43.512;5.220;2023-07-09T05:30:28;7.90;;;4.38;;
65706;SDS011;52423;43.512;5.220;2023-07-09T05:32:54;9.55;;;4.88;;
65706;SDS011;52423;43.512;5.220;2023-07-09T05:35:22;10.52;;;4.05;;
65706;SDS011;52423;43.512;5.220;2023-07-09T05:37:50;11.25;;;4.20;;
65706;SDS011;52423;43.512;5.220;2023-07-09T05:40:16;16.23;;;4.72;;
65706;SDS011;52423;43.512;5.220;2023-07-09T05:42:41;9.40;;;4.80;;
65706;SDS011;52423;43.512;5.220;2023-07-09T05:45:07;5.05;;;4.25;;
65706;SDS011;52423;43.512;5.220;2023-07-09T05:47:32;6.47;;;4.07;;
65706;SDS011;52423;43.512;5.220;2023-07-09T05:49:58;8.38;;;4.70;;
65706;SDS011;52423;43.512;5.220;2023-07-09T05:52:23;7.57;;;4.88;;
65706;SDS011;52423;43.512;5.220;2023-07-09T05:54:49;7.07;;;4.32;;
65706;SDS011;52423;43.512;5.220;2023-07-09T05:57:16;6.57;;;4.47;;
65706;SDS011;52423;43.512;5.220;2023-07-09T05:59:41;7.38;;;4.05;;
65706;SDS011;52423;43.512;5.220;2023-07-09T06:02:10;15.68;;;4.95;;
65706;SDS011;52423;43.512;5.220;2023-07-09T06:04:40;5.22;;;4.05;;
65706;SDS011;52423;43.512;5.220;2023-07-09T06:07:06;7.35;;;4.70;;
65706;SDS011;52423;43.512;5.220;2023-07-09T06:09:32;9.65;;;4.07;;
65706;SDS011;52423;43.512;5.220;2023-07-09T06:11:58;8.05;;;4.07;;
65706;SDS011;52423;43.512;5.220;2023-07-09T06:14:23;6.05;;;4.07;;
65706;SDS011;52423;43.512;5.220;2023-07-09T06:16:49;6.70;;;4.53;;
65706;SDS011;52423;43.512;5.220;2023-07-09T06:19:15;10.52;;;4.57;;
65706;SDS011;52423;43.512;5.220;2023-07-09T06:21:40;6.20;;;4.05;;
65706;SDS011;52423;43.512;5.220;2023-07-09T06:24:06;9.45;;;4.82;;
65706;SDS011;52423;43.512;5.220;2023-07-09T06:26:33;6.07;;;4.43;;
65706;SDS011;52423;43.512;5.220;2023-07-09T06:28:58;7.32;;;4.30;;
65706;SDS011;52423;43.512;5.220;2023-07-09T06:31:24;7.32;;;5.00;;
65706;SDS011;52423;43.512;5.220;2023-07-09T06:33:50;11.30;;;4.60;;
65706;SDS011;52423;43.512;5.220;2023-07-09T06:36:16;8.18;;;4.65;;
65706;SDS011;52423;43.512;5.220;2023-07-09T06:38:43;11.10;;;4.50;;
65706;SDS011;52423;43.512;5.220;2023-07-09T06:41:09;8.68;;;4.55;;
65706;SDS011;52423;43.512;5.220;2023-07-09T06:43:35;4.55;;;4.15;;
65706;SDS011;52423;43.512;5.220;2023-07-09T06:46:04;5.28;;;4.20;;
65706;SDS011;52423;43.512;5.220;2023-07-09T06:48:30;6.55;;;4.25;;
65706;SDS011;52423;43.512;5.220;2023-07-09T06:50:56;7.82;;;4.50;;
65706;SDS011;52423;43.512;5.220;2023-07-09T06:53:22;8.35;;;4.32;;
65706;SDS011;52423;43.512;5.220;2023-07-09T06:55:48;6.32;;;4.50;;
65706;SDS011;52423;43.512;5.220;2023-07-09T06:58:15;6.93;;;4.57;;
65706;SDS011;52423;43.512;5.220;2023-07-09T07:00:44;8.70;;;4.63;;
65706;SDS011;52423;43.512;5.220;2023-07-09T07:03:10;5.20;;;4.50;;
65706;SDS011;52423;43.512;5.220;2023-07-09T07:05:35;7.97;;;4.18;;
65706;SDS011;52423;43.512;5.220;2023-07-09T07:08:02;10.75;;;4.88;;
65706;SDS011;52423;43.512;5.220;2023-07-09T07:10:28;7.35;;;5.47;;
65706;SDS011;52423;43.512;5.220;2023-07-09T07:12:55;8.65;;;5.05;;
65706;SDS011;52423;43.512;5.220;2023-07-09T07:15:21;7.95;;;4.60;;
65706;SDS011;52423;43.512;5.220;2023-07-09T07:17:46;6.63;;;4.88;;
65706;SDS011;52423;43.512;5.220;2023-07-09T07:20:13;7.88;;;4.68;;
65706;SDS011;52423;43.512;5.220;2023-07-09T07:22:40;8.15;;;5.63;;
65706;SDS011;52423;43.512;5.220;2023-07-09T07:25:05;5.80;;;4.60;;
65706;SDS011;52423;43.512;5.220;2023-07-09T07:27:32;8.38;;;4.95;;
65706;SDS011;52423;43.512;5.220;2023-07-09T07:29:58;7.53;;;4.80;;
65706;SDS011;52423;43.512;5.220;2023-07-09T07:32:24;7.22;;;5.20;;
65706;SDS011;52423;43.512;5.220;2023-07-09T07:34:49;9.23;;;5.22;;
65706;SDS011;52423;43.512;5.220;2023-07-09T07:37:18;8.80;;;5.65;;
65706;SDS011;52423;43.512;5.220;2023-07-09T07:39:47;8.68;;;5.13;;
65706;SDS011;52423;43.512;5.220;2023-07-09T07:42:13;7.75;;;5.32;;
65706;SDS011;52423;43.512;5.220;2023-07-09T07:44:39;9.70;;;5.50;;
65706;SDS011;52423;43.512;5.220;2023-07-09T07:47:04;7.40;;;4.80;;
65706;SDS011;52423;43.512;5.220;2023-07-09T07:49:30;11.00;;;5.07;;
65706;SDS011;52423;43.512;5.220;2023-07-09T07:51:56;8.07;;;5.15;;
65706;SDS011;52423;43.512;5.220;2023-07-09T07:54:21;10.02;;;6.00;;
65706;SDS011;52423;43.512;5.220;2023-07-09T07:56:47;7.68;;;5.13;;
65706;SDS011;52423;43.512;5.220;2023-07-09T07:59:12;10.10;;;5.50;;
65706;SDS011;52423;43.512;5.220;2023-07-09T08:01:39;5.82;;;4.88;;
65706;SDS011;52423;43.512;5.220;2023-07-09T08:04:05;7.85;;;5.63;;
65706;SDS011;52423;43.512;5.220;2023-07-09T08:06:30;11.38;;;5.70;;
65706;SDS011;52423;43.512;5.220;2023-07-09T08:08:56;7.72;;;5.00;;
65706;SDS011;52423;43.512;5.220;2023-07-09T08:11:22;8.48;;;5.35;;
65706;SDS011;52423;43.512;5.220;2023-07-09T08:13:48;10.45;;;5.28;;
65706;SDS011;52423;43.512;5.220;2023-07-09T08:16:14;11.10;;;5.22;;
65706;SDS011;52423;43.512;5.220;2023-07-09T08:18:39;6.50;;;5.00;;
65706;SDS011;52423;43.512;5.220;2023-07-09T08:21:05;5.80;;;4.93;;
65706;SDS011;52423;43.512;5.220;2023-07-09T08:23:30;5.43;;;4.78;;
65706;SDS011;52423;43.512;5.220;2023-07-09T08:25:56;9.50;;;5.45;;
65706;SDS011;52423;43.512;5.220;2023-07-09T08:28:23;6.95;;;4.43;;
65706;SDS011;52423;43.512;5.220;2023-07-09T08:30:52;11.15;;;4.97;;
65706;SDS011;52423;43.512;5.220;2023-07-09T08:33:18;11.85;;;5.05;;
65706;SDS011;52423;43.512;5.220;2023-07-09T08:35:44;8.05;;;4.50;;
65706;SDS011;52423;43.512;5.220;2023-07-09T08:38:09;13.05;;;4.65;;
65706;SDS011;52423;43.512;5.220;2023-07-09T08:40:38;5.50;;;4.97;;
65706;SDS011;52423;43.512;5.220;2023-07-09T08:48:52;10.40;;;4.72;;
65706;SDS011;52423;43.512;5.220;2023-07-09T08:53:59;9.90;;;5.07;;
65706;SDS011;52423;43.512;5.220;2023-07-09T08:56:30;9.48;;;4.95;;
65706;SDS011;52423;43.512;5.220;2023-07-09T08:58:58;5.53;;;4.75;;
65706;SDS011;52423;43.512;5.220;2023-07-09T09:01:49;8.07;;;4.47;;
65706;SDS011;52423;43.512;5.220;2023-07-09T09:04:19;10.13;;;5.28;;
65706;SDS011;52423;43.512;5.220;2023-07-09T09:06:51;5.57;;;4.93;;
65706;SDS011;52423;43.512;5.220;2023-07-09T09:12:17;6.75;;;4.82;;
65706;SDS011;52423;43.512;5.220;2023-07-09T09:15:09;6.90;;;4.57;;
65706;SDS011;52423;43.512;5.220;2023-07-09T09:17:38;15.35;;;4.93;;
65706;SDS011;52423;43.512;5.220;2023-07-09T09:20:06;5.07;;;4.68;;
65706;SDS011;52423;43.512;5.220;2023-07-09T09:25:33;9.18;;;4.70;;
65706;SDS011;52423;43.512;5.220;2023-07-09T09:28:02;9.63;;;4.75;;
65706;SDS011;52423;43.512;5.220;2023-07-09T09:30:28;7.95;;;4.60;;
65706;SDS011;52423;43.512;5.220;2023-07-09T09:35:31;7.53;;;4.95;;
65706;SDS011;52423;43.512;5.220;2023-07-09T09:37:57;11.45;;;4.88;;
65706;SDS011;52423;43.512;5.220;2023-07-09T09:40:24;10.38;;;5.15;;
65706;SDS011;52423;43.512;5.220;2023-07-09T09:42:51;10.38;;;5.60;;
65706;SDS011;52423;43.512;5.220;2023-07-09T09:45:20;9.65;;;5.10;;
65706;SDS011;52423;43.512;5.220;2023-07-09T09:48:00;7.18;;;4.68;;
65706;SDS011;52423;43.512;5.220;2023-07-09T09:50:27;8.93;;;4.90;;
65706;SDS011;52423;43.512;5.220;2023-07-09T09:52:57;9.50;;;5.07;;
65706;SDS011;52423;43.512;5.220;2023-07-09T09:55:26;10.30;;;5.15;;
65706;SDS011;52423;43.512;5.220;2023-07-09T09:57:54;8.75;;;5.40;;
65706;SDS011;52423;43.512;5.220;2023-07-09T10:00:23;9.07;;;5.65;;
65706;SDS011;52423;43.512;5.220;2023-07-09T10:02:50;7.63;;;4.90;;
65706;SDS011;52423;43.512;5.220;2023-07-09T10:05:25;13.02;;;5.38;;
65706;SDS011;52423;43.512;5.220;2023-07-09T10:08:00;7.97;;;5.07;;
65706;SDS011;52423;43.512;5.220;2023-07-09T10:10:33;10.25;;;5.05;;
65706;SDS011;52423;43.512;5.220;2023-07-09T10:15:41;8.88;;;5.25;;
65706;SDS011;52423;43.512;5.220;2023-07-09T10:21:03;7.80;;;5.50;;
65706;SDS011;52423;43.512;5.220;2023-07-09T10:23:51;8.63;;;5.43;;
65706;SDS011;52423;43.512;5.220;2023-07-09T10:26:32;12.55;;;5.03;;
65706;SDS011;52423;43.512;5.220;2023-07-09T10:39:48;8.65;;;4.90;;
65706;SDS011;52423;43.512;5.220;2023-07-09T10:42:29;12.43;;;5.35;;
65706;SDS011;52423;43.512;5.220;2023-07-09T10:45:04;8.45;;;5.18;;
65706;SDS011;52423;43.512;5.220;2023-07-09T10:47:40;11.32;;;5.25;;
65706;SDS011;52423;43.512;5.220;2023-07-09T10:50:11;7.45;;;4.95;;
65706;SDS011;52423;43.512;5.220;2023-07-09T10:52:42;8.88;;;5.10;;
65706;SDS011;52423;43.512;5.220;2023-07-09T10:55:20;7.97;;;5.30;;
65706;SDS011;52423;43.512;5.220;2023-07-09T10:58:00;7.18;;;5.45;;
65706;SDS011;52423;43.512;5.220;2023-07-09T11:00:34;12.10;;;4.90;;
65706;SDS011;52423;43.512;5.220;2023-07-09T11:03:09;11.27;;;5.63;;
65706;SDS011;52423;43.512;5.220;2023-07-09T11:05:53;16.73;;;5.40;;
65706;SDS011;52423;43.512;5.220;2023-07-09T11:08:20;7.53;;;5.30;;
65706;SDS011;52423;43.512;5.220;2023-07-09T11:10:57;7.00;;;4.80;;
65706;SDS011;52423;43.512;5.220;2023-07-09T11:13:30;9.48;;;6.32;;
65706;SDS011;52423;43.512;5.220;2023-07-09T11:16:03;8.55;;;6.07;;
65706;SDS011;52423;43.512;5.220;2023-07-09T11:18:32;10.00;;;5.82;;
65706;SDS011;52423;43.512;5.220;2023-07-09T11:21:17;10.05;;;5.32;;
65706;SDS011;52423;43.512;5.220;2023-07-09T11:26:15;6.53;;;4.78;;
65706;SDS011;52423;43.512;5.220;2023-07-09T11:28:50;7.45;;;4.80;;
65706;SDS011;52423;43.512;5.220;2023-07-09T11:31:23;6.35;;;5.10;;
65706;SDS011;52423;43.512;5.220;2023-07-09T11:36:32;7.25;;;5.38;;
65706;SDS011;52423;43.512;5.220;2023-07-09T11:38:59;9.65;;;5.07;;
65706;SDS011;52423;43.512;5.220;2023-07-09T11:43:52;9.40;;;5.10;;
65706;SDS011;52423;43.512;5.220;2023-07-09T11:46:26;8.90;;;5.22;;
65706;SDS011;52423;43.512;5.220;2023-07-09T11:48:52;8.57;;;5.07;;
65706;SDS011;52423;43.512;5.220;2023-07-09T11:51:23;5.63;;;4.77;;
65706;SDS011;52423;43.512;5.220;2023-07-09T11:54:02;7.57;;;4.40;;
65706;SDS011;52423;43.512;5.220;2023-07-09T11:56:28;6.88;;;4.57;;
65706;SDS011;52423;43.512;5.220;2023-07-09T11:58:55;14.13;;;5.10;;
65706;SDS011;52423;43.512;5.220;2023-07-09T12:01:23;7.00;;;4.85;;
65706;SDS011;52423;43.512;5.220;2023-07-09T12:03:53;9.15;;;5.07;;
65706;SDS011;52423;43.512;5.220;2023-07-09T12:06:23;7.00;;;5.18;;
65706;SDS011;52423;43.512;5.220;2023-07-09T12:08:52;8.80;;;4.32;;
65706;SDS011;52423;43.512;5.220;2023-07-09T12:11:23;6.50;;;4.80;;
65706;SDS011;52423;43.512;5.220;2023-07-09T12:14:02;7.07;;;4.75;;
65706;SDS011;52423;43.512;5.220;2023-07-09T12:18:55;6.75;;;5.38;;
65706;SDS011;52423;43.512;5.220;2023-07-09T12:21:20;12.50;;;4.65;;
65706;SDS011;52423;43.512;5.220;2023-07-09T12:23:48;11.70;;;5.15;;
65706;SDS011;52423;43.512;5.220;2023-07-09T12:26:15;7.90;;;4.88;;
65706;SDS011;52423;43.512;5.220;2023-07-09T12:28:48;6.22;;;4.45;;
65706;SDS011;52423;43.512;5.220;2023-07-09T12:31:16;6.85;;;4.50;;
65706;SDS011;52423;43.512;5.220;2023-07-09T12:33:47;8.35;;;4.60;;
65706;SDS011;52423;43.512;5.220;2023-07-09T12:36:14;7.22;;;4.47;;
65706;SDS011;52423;43.512;5.220;2023-07-09T12:38:42;10.98;;;4.45;;
65706;SDS011;52423;43.512;5.220;2023-07-09T12:41:17;6.13;;;4.40;;
65706;SDS011;52423;43.512;5.220;2023-07-09T12:43:45;7.28;;;4.78;;
65706;SDS011;52423;43.512;5.220;2023-07-09T12:46:11;4.68;;;4.22;;
65706;SDS011;52423;43.512;5.220;2023-07-09T12:48:37;5.93;;;4.40;;
65706;SDS011;52423;43.512;5.220;2023-07-09T12:51:06;6.38;;;4.15;;
65706;SDS011;52423;43.512;5.220;2023-07-09T12:53:32;8.82;;;4.75;;
65706;SDS011;52423;43.512;5.220;2023-07-09T12:55:59;7.68;;;4.90;;
65706;SDS011;52423;43.512;5.220;2023-07-09T12:58:33;6.10;;;4.43;;
65706;SDS011;52423;43.512;5.220;2023-07-09T13:01:13;6.32;;;4.05;;
65706;SDS011;52423;43.512;5.220;2023-07-09T13:03:41;5.85;;;4.30;;
65706;SDS011;52423;43.512;5.220;2023-07-09T13:08:59;5.85;;;4.68;;
65706;SDS011;52423;43.512;5.220;2023-07-09T13:11:25;5.97;;;5.00;;
65706;SDS011;52423;43.512;5.220;2023-07-09T13:14:01;12.25;;;4.70;;
65706;SDS011;52423;43.512;5.220;2023-07-09T13:16:29;5.75;;;4.55;;
65706;SDS011;52423;43.512;5.220;2023-07-09T13:18:54;13.73;;;4.43;;
65706;SDS011;52423;43.512;5.220;2023-07-09T13:21:21;6.50;;;4.57;;
65706;SDS011;52423;43.512;5.220;2023-07-09T13:23:47;7.45;;;4.40;;
65706;SDS011;52423;43.512;5.220;2023-07-09T13:26:14;5.43;;;4.55;;
65706;SDS011;52423;43.512;5.220;2023-07-09T13:28:41;6.35;;;4.68;;
65706;SDS011;52423;43.512;5.220;2023-07-09T13:31:09;7.70;;;4.88;;
65706;SDS011;52423;43.512;5.220;2023-07-09T13:33:38;5.75;;;5.03;;
65706;SDS011;52423;43.512;5.220;2023-07-09T13:36:04;6.03;;;4.43;;
65706;SDS011;52423;43.512;5.220;2023-07-09T13:38:32;8.73;;;4.70;;
65706;SDS011;52423;43.512;5.220;2023-07-09T13:40:59;6.65;;;4.90;;
65706;SDS011;52423;43.512;5.220;2023-07-09T13:43:36;6.47;;;4.10;;
65706;SDS011;52423;43.512;5.220;2023-07-09T13:46:02;6.03;;;4.05;;
65706;SDS011;52423;43.512;5.220;2023-07-09T13:48:29;5.80;;;4.00;;
65706;SDS011;52423;43.512;5.220;2023-07-09T13:50:56;8.93;;;4.68;;
65706;SDS011;52423;43.512;5.220;2023-07-09T13:53:24;7.25;;;4.13;;
65706;SDS011;52423;43.512;5.220;2023-07-09T13:55:52;4.65;;;3.95;;
65706;SDS011;52423;43.512;5.220;2023-07-09T13:58:19;6.95;;;3.80;;
65706;SDS011;52423;43.512;5.220;2023-07-09T14:00:46;5.82;;;4.82;;
65706;SDS011;52423;43.512;5.220;2023-07-09T14:03:19;7.93;;;4.40;;
65706;SDS011;52423;43.512;5.220;2023-07-09T14:05:47;13.35;;;3.92;;
65706;SDS011;52423;43.512;5.220;2023-07-09T14:08:14;9.10;;;4.45;;
65706;SDS011;52423;43.512;5.220;2023-07-09T14:10:40;6.47;;;4.03;;
65706;SDS011;52423;43.512;5.220;2023-07-09T14:13:05;6.10;;;4.40;;
65706;SDS011;52423;43.512;5.220;2023-07-09T14:15:39;8.80;;;4.43;;
65706;SDS011;52423;43.512;5.220;2023-07-09T14:18:08;11.00;;;5.00;;
65706;SDS011;52423;43.512;5.220;2023-07-09T14:23:01;6.82;;;3.95;;
65706;SDS011;52423;43.512;5.220;2023-07-09T14:25:27;4.70;;;3.92;;
65706;SDS011;52423;43.512;5.220;2023-07-09T14:27:54;8.60;;;4.32;;
65706;SDS011;52423;43.512;5.220;2023-07-09T14:30:20;7.72;;;4.70;;
65706;SDS011;52423;43.512;5.220;2023-07-09T14:32:49;13.20;;;5.00;;
65706;SDS011;52423;43.512;5.220;2023-07-09T14:35:19;8.80;;;4.72;;
65706;SDS011;52423;43.512;5.220;2023-07-09T14:37:49;7.80;;;4.43;;
65706;SDS011;52423;43.512;5.220;2023-07-09T14:40:17;10.23;;;4.68;;
65706;SDS011;52423;43.512;5.220;2023-07-09T14:42:45;7.07;;;4.00;;
65706;SDS011;52423;43.512;5.220;2023-07-09T14:47:44;5.97;;;3.90;;
65706;SDS011;52423;43.512;5.220;2023-07-09T14:50:10;5.18;;;4.07;;
65706;SDS011;52423;43.512;5.220;2023-07-09T14:52:35;7.40;;;3.97;;
65706;SDS011;52423;43.512;5.220;2023-07-09T14:55:01;4.10;;;3.55;;
65706;SDS011;52423;43.512;5.220;2023-07-09T14:57:27;7.25;;;3.47;;
65706;SDS011;52423;43.512;5.220;2023-07-09T14:59:55;5.05;;;3.30;;
65706;SDS011;52423;43.512;5.220;2023-07-09T15:04:57;8.00;;;3.92;;
65706;SDS011;52423;43.512;5.220;2023-07-09T15:07:23;4.18;;;3.58;;
65706;SDS011;52423;43.512;5.220;2023-07-09T15:09:54;8.23;;;3.35;;
65706;SDS011;52423;43.512;5.220;2023-07-09T15:12:22;6.13;;;3.47;;
65706;SDS011;52423;43.512;5.220;2023-07-09T15:14:53;6.15;;;3.45;;
65706;SDS011;52423;43.512;5.220;2023-07-09T15:17:22;4.00;;;3.20;;
65706;SDS011;52423;43.512;5.220;2023-07-09T15:19:48;4.50;;;3.08;;
65706;SDS011;52423;43.512;5.220;2023-07-09T15:22:19;7.40;;;3.22;;
65706;SDS011;52423;43.512;5.220;2023-07-09T15:24:59;4.75;;;3.88;;
65706;SDS011;52423;43.512;5.220;2023-07-09T15:27:24;6.30;;;3.58;;
65706;SDS011;52423;43.512;5.220;2023-07-09T15:29:50;7.07;;;3.22;;
65706;SDS011;52423;43.512;5.220;2023-07-09T15:32:16;8.20;;;3.35;;
65706;SDS011;52423;43.512;5.220;2023-07-09T15:34:42;5.80;;;3.40;;
65706;SDS011;52423;43.512;5.220;2023-07-09T15:37:15;5.57;;;3.13;;
65706;SDS011;52423;43.512;5.220;2023-07-09T15:39:42;6.22;;;2.67;;
65706;SDS011;52423;43.512;5.220;2023-07-09T15:42:13;6.57;;;3.20;;
65706;SDS011;52423;43.512;5.220;2023-07-09T15:44:39;7.82;;;4.10;;
65706;SDS011;52423;43.512;5.220;2023-07-09T15:47:07;6.97;;;3.28;;